Time;durP1;ratioP1;P1;durP2;ratioP2;P2;SDS_P1;SDS_P2;PMS_P1;PMS_P2;Temp;Humidity;BMP_temperature;BMP_pressure;BME280_temperature;BME280_humidity;BME280_pressure;Samples;Min_cycle;Max_cycle;Signal;HPM_P1;HPM_P2
2023/06/13 00:01:30;;;;;;;6.03;3.00;;;17.50;47.10;;;;;;5072669;28;20442;-76
2023/06/13 00:04:01;;;;;;;4.40;2.87;;;17.50;47.20;;;;;;5072851;28;20426;-76
2023/06/13 00:06:37;;;;;;;5.57;3.67;;;17.50;47.20;;;;;;5072932;28;20442;-75
2023/06/13 00:09:06;;;;;;;7.50;2.70;;;17.50;47.00;;;;;;5071431;28;20449;-75
2023/06/13 00:11:38;;;;;;;5.57;4.00;;;17.50;46.80;;;;;;5072851;28;20437;-76
2023/06/13 00:14:10;;;;;;;4.57;3.50;;;17.50;46.70;;;;;;5073020;28;20753;-75
2023/06/13 00:16:48;;;;;;;5.80;3.37;;;17.40;46.90;;;;;;5073067;28;20485;-75
2023/06/13 00:19:18;;;;;;;4.50;3.20;;;17.40;46.90;;;;;;5073071;28;20441;-76
2023/06/13 00:21:46;;;;;;;4.00;3.07;;;17.40;46.80;;;;;;5072830;28;20759;-75
2023/06/13 00:24:14;;;;;;;5.10;2.93;;;17.30;47.00;;;;;;5073552;28;20485;-76
2023/06/13 00:26:41;;;;;;;5.90;3.87;;;17.30;47.10;;;;;;5072690;28;20442;-75
2023/06/13 00:29:17;;;;;;;6.57;3.17;;;17.30;47.70;;;;;;5072504;28;20438;-75
2023/06/13 00:31:56;;;;;;;4.47;3.00;;;17.20;47.10;;;;;;5072390;28;20438;-75
2023/06/13 00:34:28;;;;;;;3.77;3.00;;;17.20;47.70;;;;;;5072607;28;20529;-76
2023/06/13 00:37:00;;;;;;;6.90;4.40;;;17.20;47.20;;;;;;5071783;28;20579;-76
2023/06/13 00:39:35;;;;;;;7.03;3.70;;;17.20;47.80;;;;;;5072746;28;20442;-76
2023/06/13 00:42:06;;;;;;;6.83;3.10;;;17.20;47.20;;;;;;5072941;28;20499;-76
2023/06/13 00:44:34;;;;;;;4.90;2.93;;;17.10;47.20;;;;;;5072569;28;20434;-75
2023/06/13 00:47:03;;;;;;;5.63;3.70;;;17.10;47.30;;;;;;5072470;28;20491;-76
2023/06/13 00:49:36;;;;;;;5.10;3.50;;;17.00;47.50;;;;;;5069709;28;20434;-75
2023/06/13 00:52:05;;;;;;;5.43;3.50;;;17.00;48.20;;;;;;5072024;28;20438;-75
2023/06/13 00:54:36;;;;;;;4.17;2.83;;;17.00;47.80;;;;;;5072495;28;20439;-75
2023/06/13 00:57:04;;;;;;;4.57;2.80;;;16.90;47.90;;;;;;5075123;28;20500;-76
2023/06/13 00:59:41;;;;;;;3.57;2.77;;;16.90;48.00;;;;;;5076075;28;20441;-75
2023/06/13 01:02:13;;;;;;;4.47;3.40;;;16.90;48.20;;;;;;5076466;28;20445;-75
2023/06/13 01:04:41;;;;;;;14.83;3.70;;;16.90;48.20;;;;;;5076543;28;20442;-75
2023/06/13 01:07:11;;;;;;;4.17;2.80;;;16.90;48.50;;;;;;5076333;28;20442;-75
2023/06/13 01:09:44;;;;;;;4.10;3.00;;;16.80;48.30;;;;;;5075393;28;20453;-75
2023/06/13 01:12:19;;;;;;;5.00;3.80;;;16.80;48.40;;;;;;5076576;28;20441;-75
2023/06/13 01:14:53;;;;;;;5.13;2.80;;;16.80;48.70;;;;;;5074933;28;20459;-75
2023/06/13 01:17:24;;;;;;;10.17;4.10;;;16.70;49.00;;;;;;5076025;28;21017;-75
2023/06/13 01:19:54;;;;;;;4.77;3.20;;;16.70;48.80;;;;;;5076196;28;20525;-75
2023/06/13 01:22:24;;;;;;;5.27;3.60;;;16.60;49.00;;;;;;5075887;28;20941;-76
2023/06/13 01:25:08;;;;;;;6.93;4.00;;;16.60;49.20;;;;;;5076022;28;20442;-75
2023/06/13 01:27:37;;;;;;;5.07;3.57;;;16.60;49.40;;;;;;5075989;28;20441;-75
2023/06/13 01:30:07;;;;;;;4.20;3.13;;;16.50;49.40;;;;;;5075858;28;20784;-75
2023/06/13 01:32:38;;;;;;;5.97;3.73;;;16.50;49.50;;;;;;5075915;28;20442;-75
2023/06/13 01:35:10;;;;;;;6.00;3.23;;;16.40;49.50;;;;;;5075969;28;20441;-75
2023/06/13 01:37:38;;;;;;;5.27;3.10;;;16.40;49.50;;;;;;5075223;28;20488;-75
2023/06/13 01:40:09;;;;;;;4.53;2.90;;;16.40;49.90;;;;;;5075605;28;20955;-75
2023/06/13 01:42:37;;;;;;;6.00;3.40;;;16.30;50.00;;;;;;5075491;28;20445;-75
2023/06/13 01:45:05;;;;;;;5.00;3.00;;;16.30;50.10;;;;;;5075612;28;20470;-75
2023/06/13 01:47:41;;;;;;;4.80;3.40;;;16.20;50.30;;;;;;5075398;28;20434;-75
2023/06/13 01:50:24;;;;;;;9.60;3.73;;;16.20;50.00;;;;;;5077626;28;20450;-74
2023/06/13 01:53:03;;;;;;;11.10;4.10;;;16.10;50.00;;;;;;5078324;28;20449;-77
2023/06/13 01:55:36;;;;;;;5.20;3.07;;;16.10;50.10;;;;;;5078672;28;20478;-77
2023/06/13 01:58:12;;;;;;;4.87;3.50;;;16.10;50.20;;;;;;5078672;28;20547;-75
2023/06/13 02:00:42;;;;;;;6.40;3.37;;;16.00;50.40;;;;;;5078332;28;20468;-78
2023/06/13 02:03:10;;;;;;;5.80;3.37;;;16.00;50.40;;;;;;5077631;28;20462;-75
2023/06/13 02:05:38;;;;;;;8.03;3.40;;;16.00;50.50;;;;;;5078693;28;20464;-75
2023/06/13 02:08:06;;;;;;;6.03;3.40;;;15.90;50.50;;;;;;5078360;28;20425;-76
2023/06/13 02:10:34;;;;;;;8.87;3.20;;;15.90;50.50;;;;;;5078293;28;20473;-77
2023/06/13 02:13:09;;;;;;;4.40;2.93;;;15.80;50.60;;;;;;5079011;28;20438;-75
2023/06/13 02:15:40;;;;;;;4.80;2.60;;;15.70;50.60;;;;;;5078412;28;20463;-75
2023/06/13 02:18:11;;;;;;;6.43;4.13;;;15.70;50.70;;;;;;5076971;28;20563;-75
2023/06/13 02:20:44;;;;;;;6.00;3.30;;;15.70;51.10;;;;;;5079068;28;20442;-75
2023/06/13 02:23:12;;;;;;;5.07;3.90;;;15.60;51.20;;;;;;5077320;28;20430;-75
2023/06/13 02:25:49;;;;;;;5.57;3.23;;;15.50;51.10;;;;;;5078640;28;20433;-75
2023/06/13 02:28:23;;;;;;;5.73;3.30;;;15.50;51.30;;;;;;5078466;28;20932;-75
2023/06/13 02:30:50;;;;;;;4.70;3.60;;;15.40;51.30;;;;;;5078644;28;20442;-75
2023/06/13 02:33:18;;;;;;;5.03;3.00;;;15.40;51.50;;;;;;5078601;28;20527;-75
2023/06/13 02:35:48;;;;;;;6.57;3.63;;;15.30;51.60;;;;;;5078436;28;20537;-75
2023/06/13 02:38:15;;;;;;;5.57;3.47;;;15.30;51.60;;;;;;5078455;28;20489;-75
2023/06/13 02:41:03;;;;;;;10.87;3.10;;;15.30;51.80;;;;;;5078059;28;20450;-75
2023/06/13 02:43:31;;;;;;;4.70;2.90;;;15.20;51.80;;;;;;5078663;28;20793;-75
2023/06/13 02:46:03;;;;;;;5.20;3.57;;;15.20;52.00;;;;;;5078311;28;20441;-75
2023/06/13 02:48:33;;;;;;;5.40;3.60;;;15.20;52.00;;;;;;5078633;28;20434;-76
2023/06/13 02:51:00;;;;;;;4.40;2.70;;;15.20;52.20;;;;;;5078638;28;20433;-75
2023/06/13 02:53:28;;;;;;;4.27;2.73;;;15.20;52.40;;;;;;5077762;28;20445;-75
2023/06/13 02:56:02;;;;;;;4.37;2.97;;;15.10;52.20;;;;;;5077652;28;20480;-76
2023/06/13 02:58:31;;;;;;;3.60;2.60;;;15.10;52.30;;;;;;5077762;28;20481;-77
2023/06/13 03:00:58;;;;;;;5.30;3.23;;;15.10;52.30;;;;;;5077322;28;20459;-75
2023/06/13 03:03:26;;;;;;;4.90;3.70;;;15.10;52.40;;;;;;5078083;28;20533;-75
2023/06/13 03:05:56;;;;;;;6.67;3.47;;;15.10;52.40;;;;;;5078117;28;20843;-76
2023/06/13 03:08:23;;;;;;;4.57;2.93;;;15.10;52.70;;;;;;5077775;28;20443;-75
2023/06/13 03:10:52;;;;;;;5.07;3.03;;;15.00;52.70;;;;;;5077318;28;20920;-75
2023/06/13 03:13:20;;;;;;;4.00;3.47;;;15.00;52.30;;;;;;5076860;28;20445;-75
2023/06/13 03:15:51;;;;;;;6.73;3.60;;;14.90;52.40;;;;;;5078076;28;20448;-75
2023/06/13 03:18:18;;;;;;;6.00;3.70;;;14.80;52.60;;;;;;5077441;28;20550;-75
2023/06/13 03:20:47;;;;;;;7.17;4.80;;;14.70;53.00;;;;;;5077512;28;20437;-76
2023/06/13 03:23:15;;;;;;;16.70;4.20;;;14.60;53.40;;;;;;5077806;28;20996;-75
2023/06/13 03:25:42;;;;;;;6.40;4.20;;;14.50;54.40;;;;;;5077681;28;20433;-75
2023/06/13 03:28:09;;;;;;;5.40;3.70;;;14.40;53.80;;;;;;5077099;28;20485;-75
2023/06/13 03:30:37;;;;;;;4.43;3.27;;;14.30;54.00;;;;;;5077492;28;20489;-75
2023/06/13 03:33:06;;;;;;;7.23;3.07;;;14.20;54.50;;;;;;5077492;28;20443;-75
2023/06/13 03:35:38;;;;;;;5.27;4.03;;;14.10;54.60;;;;;;5077736;28;20433;-75
2023/06/13 03:38:06;;;;;;;5.57;3.67;;;14.10;54.90;;;;;;5077230;28;20713;-75
2023/06/13 03:40:35;;;;;;;5.30;4.00;;;14.10;55.10;;;;;;5076198;28;20470;-76
2023/06/13 03:43:17;;;;;;;5.37;3.73;;;14.10;55.20;;;;;;5075820;28;20433;-75
2023/06/13 03:45:45;;;;;;;10.00;4.30;;;14.00;55.60;;;;;;5075968;28;20430;-75
2023/06/13 03:48:13;;;;;;;5.00;3.77;;;13.90;55.80;;;;;;5076389;28;20441;-75
2023/06/13 03:50:45;;;;;;;4.67;2.83;;;13.90;55.90;;;;;;5075530;28;20507;-75
2023/06/13 03:53:12;;;;;;;6.47;3.80;;;13.80;56.30;;;;;;5073185;28;20455;-76
2023/06/13 03:55:44;;;;;;;6.60;4.30;;;13.80;56.70;;;;;;5073264;28;20533;-76
2023/06/13 03:58:12;;;;;;;7.00;3.80;;;13.70;57.60;;;;;;5073364;28;20541;-76
2023/06/13 04:00:41;;;;;;;6.20;3.93;;;13.70;57.20;;;;;;5072544;28;20786;-75
2023/06/13 04:03:14;;;;;;;5.90;3.80;;;13.70;57.40;;;;;;5073026;28;20441;-76
2023/06/13 04:05:42;;;;;;;5.00;4.00;;;13.70;57.60;;;;;;5073222;28;20468;-76
2023/06/13 04:08:10;;;;;;;6.53;3.57;;;13.70;57.70;;;;;;5073097;28;20473;-76
2023/06/13 04:10:41;;;;;;;5.80;3.73;;;13.70;57.80;;;;;;5072574;28;20437;-76
2023/06/13 04:13:08;;;;;;;5.83;3.73;;;13.70;57.70;;;;;;5073213;28;20437;-76
2023/06/13 04:15:39;;;;;;;5.20;3.80;;;13.70;58.00;;;;;;5073421;28;20445;-76
2023/06/13 04:18:06;;;;;;;6.03;3.87;;;13.70;58.10;;;;;;5072874;28;20970;-76
2023/06/13 04:20:35;;;;;;;7.33;4.20;;;13.70;58.40;;;;;;5073258;28;20463;-76
2023/06/13 04:23:07;;;;;;;5.90;4.00;;;13.70;58.70;;;;;;5072420;28;20434;-75
2023/06/13 04:25:35;;;;;;;6.03;3.53;;;13.70;58.90;;;;;;5072917;28;20437;-75
2023/06/13 04:28:08;;;;;;;5.10;3.80;;;13.70;59.00;;;;;;5072737;28;20443;-76
2023/06/13 04:30:36;;;;;;;5.10;3.63;;;13.80;59.20;;;;;;5072993;28;20451;-75
2023/06/13 04:33:06;;;;;;;6.47;4.83;;;13.80;59.20;;;;;;5077240;28;20443;-76
2023/06/13 04:35:46;;;;;;;4.80;3.40;;;13.80;59.40;;;;;;5076673;28;20437;-75
2023/06/13 04:38:14;;;;;;;8.90;4.43;;;13.90;60.00;;;;;;5077201;28;20538;-76
2023/06/13 04:40:43;;;;;;;5.20;4.60;;;14.00;60.10;;;;;;5076800;28;20944;-76
2023/06/13 04:43:14;;;;;;;5.97;4.10;;;14.10;60.20;;;;;;5076896;28;20496;-76
2023/06/13 04:45:45;;;;;;;6.20;5.00;;;14.10;60.40;;;;;;5076338;28;20441;-75
2023/06/13 04:48:15;;;;;;;5.10;3.90;;;14.20;60.60;;;;;;5076763;28;20444;-76
2023/06/13 04:50:44;;;;;;;6.50;4.03;;;14.20;61.10;;;;;;5076689;28;20437;-76
2023/06/13 04:53:12;;;;;;;9.67;3.73;;;14.30;61.30;;;;;;5077252;28;20432;-76
2023/06/13 04:55:39;;;;;;;5.67;3.80;;;14.40;61.30;;;;;;5076860;28;20526;-76
2023/06/13 04:58:06;;;;;;;6.47;4.00;;;14.50;61.00;;;;;;5076421;28;20542;-76
2023/06/13 05:00:34;;;;;;;7.33;4.07;;;14.50;60.30;;;;;;5075824;28;20429;-76
2023/06/13 05:03:01;;;;;;;6.50;3.50;;;14.60;60.10;;;;;;5076435;28;20438;-76
2023/06/13 05:05:28;;;;;;;9.93;3.60;;;14.70;59.80;;;;;;5076221;28;20448;-75
2023/06/13 05:07:59;;;;;;;7.40;3.60;;;14.80;59.40;;;;;;5070161;28;20917;-74
2023/06/13 05:10:31;;;;;;;4.30;3.27;;;14.90;59.00;;;;;;5072902;28;21307;-76
2023/06/13 05:12:58;;;;;;;4.93;3.33;;;15.00;58.70;;;;;;5073105;28;20852;-75
2023/06/13 05:15:25;;;;;;;5.90;3.40;;;15.20;58.50;;;;;;5071000;28;20444;-76
2023/06/13 05:18:06;;;;;;;5.50;3.70;;;15.20;58.20;;;;;;5072893;28;20499;-77
2023/06/13 05:20:34;;;;;;;4.87;2.50;;;15.30;57.40;;;;;;5072266;28;20445;-75
2023/06/13 05:23:02;;;;;;;8.67;4.03;;;15.50;57.10;;;;;;5068888;28;20850;-76
2023/06/13 05:25:32;;;;;;;6.40;3.40;;;15.50;56.70;;;;;;5066435;28;20476;-76
2023/06/13 05:28:08;;;;;;;5.07;3.50;;;15.60;56.70;;;;;;5059120;28;20865;-75
2023/06/13 05:30:41;;;;;;;5.50;3.30;;;15.70;56.60;;;;;;5068328;28;20441;-75
2023/06/13 05:33:17;;;;;;;4.63;3.80;;;15.70;56.80;;;;;;5054981;28;20979;-75
2023/06/13 05:35:48;;;;;;;4.47;3.03;;;15.80;56.60;;;;;;5068943;28;20448;-75
2023/06/13 05:38:19;;;;;;;8.63;3.50;;;15.90;56.30;;;;;;5072443;28;20474;-75
2023/06/13 05:40:50;;;;;;;5.03;3.10;;;16.00;55.70;;;;;;5071961;28;20523;-76
2023/06/13 05:43:19;;;;;;;4.13;2.60;;;16.10;55.50;;;;;;5064848;28;20507;-75
2023/06/13 05:45:49;;;;;;;4.40;3.05;;;16.10;55.70;;;;;;5054872;28;20448;-76
2023/06/13 05:48:21;;;;;;;6.60;3.70;;;16.20;55.50;;;;;;5054511;28;20814;-76
2023/06/13 05:50:54;;;;;;;5.27;3.07;;;16.30;54.40;;;;;;5057474;28;20231;-76
2023/06/13 05:53:23;;;;;;;7.70;3.00;;;16.40;54.20;;;;;;5063154;28;20445;-76
2023/06/13 05:55:52;;;;;;;4.67;2.40;;;16.50;53.90;;;;;;5068031;28;20473;-76
2023/06/13 05:58:20;;;;;;;4.83;3.30;;;16.60;53.70;;;;;;5072166;28;20570;-76
2023/06/13 06:00:47;;;;;;;4.70;2.90;;;16.60;53.60;;;;;;5072189;28;20454;-76
2023/06/13 06:03:15;;;;;;;4.47;3.10;;;16.60;53.80;;;;;;5067673;28;20816;-75
2023/06/13 06:05:42;;;;;;;5.97;2.80;;;16.70;53.70;;;;;;5071323;28;20852;-76
2023/06/13 06:08:09;;;;;;;4.87;3.30;;;16.80;53.70;;;;;;5071782;28;20439;-76
2023/06/13 06:10:39;;;;;;;3.40;2.97;;;16.90;53.90;;;;;;5070696;28;20448;-76
2023/06/13 06:13:06;;;;;;;5.27;3.07;;;16.90;53.90;;;;;;5070477;28;20479;-75
2023/06/13 06:15:40;;;;;;;5.40;2.97;;;17.00;54.00;;;;;;5071648;28;20449;-76
2023/06/13 06:18:08;;;;;;;10.80;3.90;;;17.10;53.30;;;;;;5071281;28;20501;-77
2023/06/13 06:20:39;;;;;;;9.20;3.77;;;17.20;52.50;;;;;;5067744;28;20797;-76
2023/06/13 06:23:07;;;;;;;3.87;2.70;;;17.20;53.10;;;;;;5071598;28;20457;-76
2023/06/13 06:25:41;;;;;;;4.27;3.50;;;17.20;53.10;;;;;;5070947;28;20426;-77
2023/06/13 06:28:11;;;;;;;5.00;3.80;;;17.30;52.60;;;;;;5070669;28;20495;-77
2023/06/13 06:30:38;;;;;;;6.33;3.60;;;17.30;52.70;;;;;;5071006;28;20454;-75
2023/06/13 06:33:06;;;;;;;4.93;3.10;;;17.40;52.50;;;;;;5071612;28;20431;-77
2023/06/13 06:35:35;;;;;;;5.43;3.53;;;17.50;52.70;;;;;;5071000;28;20802;-76
2023/06/13 06:38:02;;;;;;;4.50;3.13;;;17.60;52.20;;;;;;5070258;28;20909;-77
2023/06/13 06:40:35;;;;;;;4.57;2.93;;;17.60;51.90;;;;;;5070069;28;20455;-75
2023/06/13 06:43:03;;;;;;;7.57;3.40;;;17.70;52.20;;;;;;5070366;28;20433;-75
2023/06/13 06:45:31;;;;;;;6.50;3.87;;;17.80;52.60;;;;;;5066671;28;20437;-76
2023/06/13 06:47:58;;;;;;;6.30;3.73;;;17.80;52.80;;;;;;5071011;28;20434;-76
2023/06/13 06:50:33;;;;;;;5.97;3.50;;;17.90;51.90;;;;;;5063238;28;20439;-76
2023/06/13 06:53:14;;;;;;;5.07;3.27;;;17.90;51.60;;;;;;5059817;28;20467;-77
2023/06/13 06:56:10;;;;;;;5.40;3.20;;;17.90;51.70;;;;;;5070844;28;20466;-76
2023/06/13 06:58:40;;;;;;;7.37;3.30;;;18.00;52.30;;;;;;5073312;28;20478;-74
2023/06/13 07:01:08;;;;;;;5.50;3.30;;;18.10;52.60;;;;;;5072680;28;20453;-73
2023/06/13 07:03:37;;;;;;;4.90;3.20;;;18.30;52.60;;;;;;5072789;28;20492;-75
2023/06/13 07:06:05;;;;;;;7.60;3.57;;;18.30;51.80;;;;;;5074057;28;20844;-75
2023/06/13 07:08:32;;;;;;;6.60;3.03;;;18.40;51.20;;;;;;5070582;28;20492;-75
2023/06/13 07:10:59;;;;;;;4.00;3.10;;;18.50;50.70;;;;;;5073136;28;20852;-75
2023/06/13 07:13:28;;;;;;;3.57;3.10;;;18.50;50.40;;;;;;5072767;28;20932;-75
2023/06/13 07:15:56;;;;;;;6.33;3.50;;;18.70;50.00;;;;;;5073345;28;20495;-76
2023/06/13 07:18:23;;;;;;;4.63;3.17;;;18.60;50.40;;;;;;5068431;28;20478;-75
2023/06/13 07:20:54;;;;;;;4.23;2.60;;;18.70;50.50;;;;;;5072602;28;20481;-75
2023/06/13 07:23:21;;;;;;;7.37;3.70;;;18.80;50.40;;;;;;5072620;28;20500;-75
2023/06/13 07:25:52;;;;;;;4.47;3.20;;;18.90;50.40;;;;;;5073125;28;20515;-75
2023/06/13 07:28:20;;;;;;;6.00;3.60;;;19.00;50.30;;;;;;5068874;28;20515;-75
2023/06/13 07:30:49;;;;;;;7.10;3.53;;;19.00;49.50;;;;;;5069202;28;20442;-75
2023/06/13 07:33:17;;;;;;;3.87;3.00;;;19.10;49.20;;;;;;5068767;28;20522;-75
2023/06/13 07:35:48;;;;;;;4.90;3.07;;;19.20;49.60;;;;;;5072730;28;20993;-74
2023/06/13 07:38:15;;;;;;;5.60;3.20;;;19.30;49.40;;;;;;5068075;28;20840;-75
2023/06/13 07:40:47;;;;;;;7.33;3.00;;;19.40;48.80;;;;;;5068535;28;20443;-75
2023/06/13 07:43:19;;;;;;;5.03;3.03;;;19.50;48.40;;;;;;5072893;28;20783;-75
2023/06/13 07:45:47;;;;;;;4.43;2.90;;;19.50;48.80;;;;;;5072749;28;20947;-76
2023/06/13 07:48:15;;;;;;;4.43;3.50;;;19.70;48.30;;;;;;5071919;28;20460;-75
2023/06/13 07:50:43;;;;;;;8.30;3.83;;;19.70;48.30;;;;;;5072539;28;20478;-75
2023/06/13 07:53:10;;;;;;;4.40;3.10;;;19.80;47.70;;;;;;5072586;28;20439;-75
2023/06/13 07:55:46;;;;;;;4.70;3.53;;;19.90;47.70;;;;;;5072008;28;20971;-75
2023/06/13 07:58:14;;;;;;;6.40;3.37;;;20.00;48.70;;;;;;5071473;28;20471;-75
2023/06/13 08:00:50;;;;;;;4.20;2.90;;;20.10;48.70;;;;;;5072308;28;20537;-75
2023/06/13 08:03:21;;;;;;;7.30;3.53;;;20.30;47.30;;;;;;5072414;28;20763;-76
2023/06/13 08:05:49;;;;;;;5.07;2.60;;;20.30;47.80;;;;;;5070850;28;20524;-75
2023/06/13 08:08:16;;;;;;;6.43;3.20;;;20.40;48.30;;;;;;5071031;28;20442;-75
2023/06/13 08:10:45;;;;;;;4.80;2.70;;;20.60;48.20;;;;;;5072173;28;20476;-76
2023/06/13 08:15:57;;;;;;;6.17;3.33;;;20.70;46.40;;;;;;5069226;28;20796;-76
2023/06/13 08:18:28;;;;;;;6.90;3.53;;;20.80;45.60;;;;;;5070812;28;20489;-76
2023/06/13 08:20:57;;;;;;;5.80;3.43;;;20.80;45.40;;;;;;5068971;28;20287;-77
2023/06/13 08:23:27;;;;;;;5.53;4.17;;;20.90;46.50;;;;;;5068250;28;20522;-77
2023/06/13 08:26:02;;;;;;;5.40;3.50;;;21.00;46.30;;;;;;5067727;28;20434;-76
2023/06/13 08:28:30;;;;;;;4.67;3.30;;;21.20;44.40;;;;;;5067321;28;20282;-76
2023/06/13 08:30:58;;;;;;;4.00;2.60;;;21.20;44.60;;;;;;5071574;28;20457;-76
2023/06/13 08:33:26;;;;;;;5.43;3.03;;;21.40;44.10;;;;;;5068397;28;20940;-76
2023/06/13 08:36:00;;;;;;;5.13;2.83;;;21.40;44.70;;;;;;5071942;28;20447;-77
2023/06/13 08:38:27;;;;;;;5.30;3.20;;;21.40;44.90;;;;;;5067780;28;20482;-76
2023/06/13 08:40:54;;;;;;;4.00;2.80;;;21.50;45.00;;;;;;5072067;28;20532;-77
2023/06/13 08:43:21;;;;;;;4.37;2.90;;;21.60;44.70;;;;;;5072180;28;20550;-76
2023/06/13 08:45:53;;;;;;;7.20;2.80;;;21.60;44.30;;;;;;5072134;28;20988;-77
2023/06/13 08:48:20;;;;;;;7.60;3.13;;;21.70;44.20;;;;;;5069977;28;20452;-77
2023/06/13 08:50:48;;;;;;;7.40;3.20;;;21.70;43.70;;;;;;5071944;28;20543;-74
2023/06/13 08:53:20;;;;;;;4.57;3.60;;;21.70;44.50;;;;;;5071809;28;20867;-76
2023/06/13 08:55:49;;;;;;;5.13;2.83;;;21.80;45.10;;;;;;5071676;28;20477;-75
2023/06/13 08:58:19;;;;;;;4.97;3.10;;;21.90;43.90;;;;;;5071348;28;20449;-74
2023/06/13 09:00:49;;;;;;;6.90;2.80;;;21.90;43.50;;;;;;5071885;28;20442;-75
2023/06/13 09:03:17;;;;;;;7.57;3.73;;;22.00;45.10;;;;;;5072063;28;20454;-75
2023/06/13 09:05:49;;;;;;;6.60;3.13;;;22.10;45.60;;;;;;5071507;28;20520;-75
2023/06/13 09:08:19;;;;;;;3.80;2.83;;;22.20;44.60;;;;;;5068400;28;20535;-75
2023/06/13 09:10:46;;;;;;;4.60;2.70;;;22.30;44.20;;;;;;5071248;28;20996;-75
2023/06/13 09:13:15;;;;;;;4.77;2.77;;;22.40;43.50;;;;;;5072032;28;20528;-75
2023/06/13 09:15:47;;;;;;;7.43;3.00;;;22.60;43.40;;;;;;5071741;28;20485;-74
2023/06/13 09:18:17;;;;;;;7.83;3.60;;;22.60;42.30;;;;;;5074135;28;20856;-75
2023/06/13 09:20:44;;;;;;;4.33;3.20;;;22.60;42.10;;;;;;5074985;28;20796;-74
2023/06/13 09:23:16;;;;;;;6.53;3.20;;;22.70;41.80;;;;;;5075278;28;20538;-74
2023/06/13 09:25:46;;;;;;;6.60;3.57;;;22.70;41.60;;;;;;5075585;28;20452;-76
2023/06/13 09:28:31;;;;;;;6.53;3.13;;;22.80;41.80;;;;;;5071327;28;20442;-75
2023/06/13 09:31:11;;;;;;;4.40;3.13;;;22.80;42.40;;;;;;5073198;28;20524;-75
2023/06/13 09:33:44;;;;;;;5.10;3.40;;;22.90;43.20;;;;;;5075244;28;20538;-75
2023/06/13 09:36:10;;;;;;;5.50;3.50;;;23.00;43.30;;;;;;5075434;28;20521;-75
2023/06/13 09:38:40;;;;;;;3.33;2.30;;;23.20;43.10;;;;;;5074642;28;20529;-75
2023/06/13 09:41:11;;;;;;;6.73;3.70;;;23.30;42.90;;;;;;5074907;28;20435;-75
2023/06/13 09:43:42;;;;;;;4.73;3.47;;;23.30;43.20;;;;;;5075355;28;20520;-75
2023/06/13 09:46:12;;;;;;;5.60;2.90;;;23.50;43.50;;;;;;5075108;28;20442;-75
2023/06/13 09:48:44;;;;;;;6.00;2.77;;;23.60;42.60;;;;;;5070586;28;20464;-76
2023/06/13 09:51:11;;;;;;;7.30;3.70;;;23.60;41.70;;;;;;5074966;28;20490;-75
2023/06/13 09:53:40;;;;;;;5.40;3.23;;;23.70;42.60;;;;;;5075005;28;20529;-74
2023/06/13 09:56:10;;;;;;;5.00;2.40;;;23.80;42.80;;;;;;5074697;28;20482;-74
2023/06/13 09:58:38;;;;;;;6.60;2.83;;;23.90;41.70;;;;;;5070115;28;20743;-74
2023/06/13 10:01:12;;;;;;;4.87;2.90;;;24.00;42.20;;;;;;5074551;28;20947;-75
2023/06/13 10:03:39;;;;;;;7.37;3.20;;;24.10;41.50;;;;;;5071677;28;20462;-75
2023/06/13 10:06:07;;;;;;;4.37;3.20;;;24.10;39.40;;;;;;5074250;28;20801;-75
2023/06/13 10:08:35;;;;;;;3.63;2.67;;;24.10;40.30;;;;;;5074107;28;20465;-74
2023/06/13 10:11:13;;;;;;;5.23;2.93;;;24.10;40.60;;;;;;5074731;28;20439;-75
2023/06/13 10:13:47;;;;;;;4.50;3.07;;;24.10;40.70;;;;;;5074569;28;20434;-75
2023/06/13 10:16:15;;;;;;;5.43;3.20;;;24.10;39.80;;;;;;5074589;28;20438;-74
2023/06/13 10:18:45;;;;;;;6.10;3.20;;;24.20;40.60;;;;;;5074306;28;20489;-75
2023/06/13 10:21:14;;;;;;;5.97;2.80;;;24.20;39.80;;;;;;5074139;28;20529;-75
2023/06/13 10:23:46;;;;;;;4.20;3.00;;;24.20;39.60;;;;;;5074229;28;20532;-75
2023/06/13 10:26:25;;;;;;;10.77;3.70;;;24.20;38.70;;;;;;5074385;28;20515;-77
2023/06/13 10:29:20;;;;;;;5.20;3.20;;;24.20;40.30;;;;;;5073447;28;20447;-75
2023/06/13 10:32:10;;;;;;;6.20;3.27;;;24.30;40.50;;;;;;5074147;28;20438;-75
2023/06/13 10:34:50;;;;;;;4.70;3.30;;;24.50;40.10;;;;;;5073927;28;20803;-74
2023/06/13 10:37:43;;;;;;;6.03;3.50;;;24.60;38.30;;;;;;5072382;28;20423;-75
2023/06/13 10:40:38;;;;;;;7.93;3.47;;;24.60;39.10;;;;;;5072821;28;20494;-74
2023/06/13 10:43:15;;;;;;;5.40;3.10;;;24.80;38.80;;;;;;5074083;28;20918;-76
2023/06/13 10:45:45;;;;;;;4.53;3.07;;;24.80;37.40;;;;;;5072809;28;20605;-75
2023/06/13 10:48:13;;;;;;;11.43;3.23;;;24.70;37.10;;;;;;5072736;28;20518;-75
2023/06/13 10:50:41;;;;;;;9.47;3.57;;;24.60;36.80;;;;;;5072484;28;20447;-75
2023/06/13 10:53:09;;;;;;;3.43;2.77;;;24.60;38.30;;;;;;5073304;28;20435;-74
2023/06/13 10:55:40;;;;;;;4.20;3.20;;;24.60;37.20;;;;;;5072406;28;20465;-76
2023/06/13 10:58:13;;;;;;;5.90;3.70;;;24.70;38.40;;;;;;5073175;28;20458;-74
2023/06/13 11:00:44;;;;;;;4.80;3.23;;;24.80;37.10;;;;;;5073706;28;20483;-75
2023/06/13 11:03:20;;;;;;;4.90;3.73;;;24.80;37.80;;;;;;5072759;28;20439;-75
2023/06/13 11:05:52;;;;;;;3.83;2.90;;;24.90;37.10;;;;;;5060413;28;20828;-75
2023/06/13 11:08:22;;;;;;;5.33;4.20;;;24.90;37.90;;;;;;5072920;28;20514;-75
2023/06/13 11:10:56;;;;;;;4.70;3.70;;;25.10;38.10;;;;;;5072273;28;20447;-75
2023/06/13 11:13:44;;;;;;;4.87;2.80;;;25.10;35.60;;;;;;5072536;28;20434;-75
2023/06/13 11:16:20;;;;;;;4.00;3.00;;;25.10;35.20;;;;;;5070875;28;20500;-74
2023/06/13 11:18:52;;;;;;;8.60;3.10;;;25.20;35.00;;;;;;5072665;28;20462;-76
2023/06/13 11:21:27;;;;;;;5.67;3.20;;;25.20;36.10;;;;;;5073980;28;20602;-76
2023/06/13 11:23:58;;;;;;;5.80;3.00;;;25.20;35.60;;;;;;5073713;28;20442;-75
2023/06/13 11:26:25;;;;;;;7.93;3.40;;;25.10;37.00;;;;;;5073937;28;20477;-75
2023/06/13 11:28:56;;;;;;;6.07;3.60;;;25.30;34.60;;;;;;5073919;28;20439;-75
2023/06/13 11:31:28;;;;;;;6.00;3.10;;;25.20;34.70;;;;;;5073616;28;20435;-75
2023/06/13 11:34:03;;;;;;;8.33;3.53;;;25.20;34.30;;;;;;5073099;28;20431;-75
2023/06/13 11:36:35;;;;;;;6.23;2.87;;;25.20;33.80;;;;;;5073711;28;20529;-76
2023/06/13 11:39:05;;;;;;;4.67;3.43;;;25.20;34.50;;;;;;5072952;28;20938;-76
2023/06/13 11:41:33;;;;;;;5.70;3.10;;;25.20;33.60;;;;;;5074007;28;20855;-75
2023/06/13 11:44:01;;;;;;;3.93;2.73;;;25.10;33.90;;;;;;5073537;28;20789;-75
2023/06/13 11:46:34;;;;;;;4.90;2.60;;;25.10;34.60;;;;;;5073611;28;21242;-76
2023/06/13 11:49:02;;;;;;;5.47;3.40;;;25.20;35.20;;;;;;5073545;28;20530;-75
2023/06/13 11:51:35;;;;;;;7.27;3.53;;;25.20;34.70;;;;;;5073397;28;20486;-76
2023/06/13 11:54:02;;;;;;;4.57;3.27;;;25.30;35.50;;;;;;5073395;28;20497;-75
2023/06/13 11:56:30;;;;;;;5.27;3.40;;;25.30;34.50;;;;;;5073119;28;20546;-75
2023/06/13 11:59:16;;;;;;;4.43;3.07;;;25.30;32.90;;;;;;5073256;28;20451;-75
2023/06/13 12:01:44;;;;;;;7.57;2.90;;;25.30;33.70;;;;;;5073457;28;20783;-75
2023/06/13 12:04:12;;;;;;;5.60;2.80;;;25.30;32.30;;;;;;5073362;28;20476;-75
2023/06/13 12:06:40;;;;;;;5.83;3.27;;;25.30;31.90;;;;;;5073444;28;20818;-74
2023/06/13 12:09:14;;;;;;;8.10;2.77;;;25.30;31.80;;;;;;5073391;28;20521;-75
2023/06/13 12:11:44;;;;;;;5.47;2.70;;;25.30;32.00;;;;;;5073671;28;20471;-75
2023/06/13 12:14:18;;;;;;;5.47;3.27;;;25.30;32.40;;;;;;5072994;28;20887;-75
2023/06/13 12:16:49;;;;;;;5.50;3.57;;;25.30;33.00;;;;;;5073300;28;20439;-75
2023/06/13 12:19:22;;;;;;;10.90;2.87;;;25.30;32.10;;;;;;5073008;28;20928;-75
2023/06/13 12:21:58;;;;;;;6.23;3.03;;;25.30;34.10;;;;;;5072068;28;20530;-76
2023/06/13 12:24:26;;;;;;;5.20;3.10;;;25.30;33.80;;;;;;5072653;28;20439;-75
2023/06/13 12:26:57;;;;;;;9.23;3.03;;;25.40;32.60;;;;;;5072787;28;20530;-75
2023/06/13 12:29:27;;;;;;;4.73;3.67;;;25.40;31.30;;;;;;5071976;28;20838;-75
2023/06/13 12:32:03;;;;;;;4.50;2.70;;;25.50;33.30;;;;;;5072621;28;20467;-75
2023/06/13 12:34:35;;;;;;;5.43;2.87;;;25.60;33.20;;;;;;5072520;28;20436;-75
2023/06/13 12:37:12;;;;;;;7.43;3.10;;;25.70;33.30;;;;;;5072921;28;20497;-75
2023/06/13 12:40:06;;;;;;;4.70;2.73;;;25.70;32.10;;;;;;5072733;28;20497;-75
2023/06/13 12:42:46;;;;;;;4.00;2.83;;;25.70;32.10;;;;;;5072686;28;20518;-75
2023/06/13 12:45:17;;;;;;;6.83;2.77;;;25.80;33.20;;;;;;5073031;28;20533;-76
2023/06/13 12:47:48;;;;;;;3.47;2.27;;;25.90;32.70;;;;;;5072890;28;20433;-76
2023/06/13 12:50:16;;;;;;;5.00;3.07;;;25.90;32.60;;;;;;5073248;28;20863;-75
2023/06/13 12:53:01;;;;;;;4.73;3.00;;;25.90;30.60;;;;;;5075166;28;20474;-76
2023/06/13 12:55:38;;;;;;;4.10;2.73;;;25.90;30.80;;;;;;5076569;28;20470;-76
2023/06/13 12:58:28;;;;;;;5.97;2.60;;;25.90;29.20;;;;;;5076944;28;20446;-75
2023/06/13 13:00:59;;;;;;;6.90;3.03;;;25.70;29.50;;;;;;5076827;28;20518;-76
2023/06/13 13:03:35;;;;;;;4.83;3.10;;;25.70;29.50;;;;;;5076595;28;20432;-76
2023/06/13 13:06:07;;;;;;;4.73;3.33;;;25.70;30.40;;;;;;5076859;28;20524;-76
2023/06/13 13:08:35;;;;;;;5.90;3.30;;;25.70;28.50;;;;;;5076709;28;20447;-75